sensor_id;sensor_type;location;lat;lon;timestamp;pressure;altitude;pressure_sealevel;temperature;humidity
11643;BME280;5877;50.930;6.918;2023-03-21T00:01:58;101094.47;;;10.72;57.71
11643;BME280;5877;50.930;6.918;2023-03-21T00:06:50;101177.53;;;11.20;57.81
11643;BME280;5877;50.930;6.918;2023-03-21T00:11:42;101137.91;;;10.88;57.84
11643;BME280;5877;50.930;6.918;2023-03-21T00:16:34;101169.25;;;11.29;57.94
11643;BME280;5877;50.930;6.918;2023-03-21T00:21:29;101152.88;;;11.21;57.97
11643;BME280;5877;50.930;6.918;2023-03-21T00:26:43;100996.47;;;10.13;58.08
11643;BME280;5877;50.930;6.918;2023-03-21T00:31:36;101159.97;;;11.20;58.03
11643;BME280;5877;50.930;6.918;2023-03-21T00:36:27;101111.03;;;10.93;58.55
11643;BME280;5877;50.930;6.918;2023-03-21T00:41:22;100916.31;;;9.70;58.59
11643;BME280;5877;50.930;6.918;2023-03-21T00:46:31;101013.88;;;10.27;58.65
11643;BME280;5877;50.930;6.918;2023-03-21T00:51:41;101138.53;;;11.10;58.69
11643;BME280;5877;50.930;6.918;2023-03-21T00:56:34;101069.41;;;10.57;59.05
11643;BME280;5877;50.930;6.918;2023-03-21T01:01:26;101125.19;;;11.05;59.32
11643;BME280;5877;50.930;6.918;2023-03-21T01:06:22;100915.31;;;9.71;59.47
11643;BME280;5877;50.930;6.918;2023-03-21T01:11:19;101120.94;;;11.04;59.43
11643;BME280;5877;50.930;6.918;2023-03-21T01:16:11;100908.81;;;9.61;59.85
11643;BME280;5877;50.930;6.918;2023-03-21T01:21:06;100770.22;;;8.92;59.56
11643;BME280;5877;50.930;6.918;2023-03-21T01:25:58;101109.44;;;10.98;59.91
11643;BME280;5877;50.930;6.918;2023-03-21T01:30:51;101126.41;;;11.22;60.05
11643;BME280;5877;50.930;6.918;2023-03-21T01:35:43;101110.25;;;11.12;59.59
11643;BME280;5877;50.930;6.918;2023-03-21T01:40:46;101067.41;;;10.85;60.60
11643;BME280;5877;50.930;6.918;2023-03-21T01:51:38;100949.66;;;10.16;60.09
11643;BME280;5877;50.930;6.918;2023-03-21T01:56:34;100803.53;;;9.24;60.44
11643;BME280;5877;50.930;6.918;2023-03-21T02:01:31;100893.97;;;9.94;60.26
11643;BME280;5877;50.930;6.918;2023-03-21T02:06:35;101094.06;;;11.15;60.74
11643;BME280;5877;50.930;6.918;2023-03-21T02:11:54;100952.94;;;10.25;60.81
11643;BME280;5877;50.930;6.918;2023-03-21T02:17:10;100957.38;;;10.24;61.25
11643;BME280;5877;50.930;6.918;2023-03-21T02:37:34;101032.88;;;10.75;61.87
11643;BME280;5877;50.930;6.918;2023-03-21T02:42:40;100942.25;;;10.26;61.48
11643;BME280;5877;50.930;6.918;2023-03-21T02:47:48;101048.44;;;10.83;61.85
11643;BME280;5877;50.930;6.918;2023-03-21T02:52:45;101032.88;;;10.95;61.42
11643;BME280;5877;50.930;6.918;2023-03-21T02:57:40;100778.56;;;9.28;61.49
11643;BME280;5877;50.930;6.918;2023-03-21T03:02:36;100887.13;;;9.93;61.25
11643;BME280;5877;50.930;6.918;2023-03-21T03:22:59;101024.78;;;10.83;62.31
11643;BME280;5877;50.930;6.918;2023-03-21T03:27:55;100919.00;;;10.03;63.09
11643;BME280;5877;50.930;6.918;2023-03-21T03:32:52;100632.16;;;7.92;63.37
11643;BME280;5877;50.930;6.918;2023-03-21T03:37:49;101008.59;;;10.14;64.15
11643;BME280;5877;50.930;6.918;2023-03-21T03:42:49;100783.44;;;8.77;64.23
11643;BME280;5877;50.930;6.918;2023-03-21T03:53:26;101006.97;;;10.19;64.00
11643;BME280;5877;50.930;6.918;2023-03-21T03:58:21;100996.50;;;10.19;64.46
11643;BME280;5877;50.930;6.918;2023-03-21T04:03:21;100792.38;;;8.96;64.24
11643;BME280;5877;50.930;6.918;2023-03-21T04:08:15;100780.31;;;9.01;63.54
11643;BME280;5877;50.930;6.918;2023-03-21T04:13:11;100811.16;;;9.13;63.43
11643;BME280;5877;50.930;6.918;2023-03-21T04:18:23;100621.75;;;8.05;63.56
11643;BME280;5877;50.930;6.918;2023-03-21T04:23:16;100845.50;;;9.51;63.47
11643;BME280;5877;50.930;6.918;2023-03-21T04:28:11;100919.44;;;10.27;63.43
11643;BME280;5877;50.930;6.918;2023-03-21T04:33:23;100976.53;;;10.64;63.16
11643;BME280;5877;50.930;6.918;2023-03-21T04:38:22;100887.72;;;10.08;63.11
11643;BME280;5877;50.930;6.918;2023-03-21T04:43:14;100729.56;;;8.96;63.52
11643;BME280;5877;50.930;6.918;2023-03-21T04:48:06;100744.50;;;9.22;63.58
11643;BME280;5877;50.930;6.918;2023-03-21T04:52:58;100686.44;;;8.85;63.55
11643;BME280;5877;50.930;6.918;2023-03-21T04:57:50;100957.34;;;10.51;64.38
11643;BME280;5877;50.930;6.918;2023-03-21T05:02:44;100873.81;;;10.15;63.77
11643;BME280;5877;50.930;6.918;2023-03-21T05:07:38;100978.13;;;10.79;63.25
11643;BME280;5877;50.930;6.918;2023-03-21T05:12:30;100967.84;;;10.57;64.08
11643;BME280;5877;50.930;6.918;2023-03-21T05:17:22;100879.66;;;10.03;63.99
11643;BME280;5877;50.930;6.918;2023-03-21T05:22:15;100886.69;;;9.90;64.43
11643;BME280;5877;50.930;6.918;2023-03-21T05:27:10;100842.94;;;9.70;64.81
11643;BME280;5877;50.930;6.918;2023-03-21T05:32:08;100602.88;;;8.09;65.26
11643;BME280;5877;50.930;6.918;2023-03-21T05:37:00;100914.34;;;10.12;64.92
11643;BME280;5877;50.930;6.918;2023-03-21T05:42:11;100968.25;;;10.48;64.90
11643;BME280;5877;50.930;6.918;2023-03-21T05:47:03;100895.00;;;10.06;64.58
11643;BME280;5877;50.930;6.918;2023-03-21T05:52:09;100952.13;;;10.37;64.45
11643;BME280;5877;50.930;6.918;2023-03-21T05:57:02;100767.69;;;9.38;64.41
11643;BME280;5877;50.930;6.918;2023-03-21T06:02:14;100832.06;;;9.87;64.58
11643;BME280;5877;50.930;6.918;2023-03-21T06:07:07;100857.06;;;10.09;64.18
11643;BME280;5877;50.930;6.918;2023-03-21T06:12:03;100970.66;;;10.89;63.98
11643;BME280;5877;50.930;6.918;2023-03-21T06:17:24;100680.22;;;8.93;63.99
11643;BME280;5877;50.930;6.918;2023-03-21T06:22:21;100441.75;;;7.62;63.30
11643;BME280;5877;50.930;6.918;2023-03-21T06:27:13;100763.28;;;9.65;63.64
11643;BME280;5877;50.930;6.918;2023-03-21T06:32:17;100710.28;;;9.30;63.45
11643;BME280;5877;50.930;6.918;2023-03-21T06:37:11;100850.22;;;10.28;63.29
11643;BME280;5877;50.930;6.918;2023-03-21T06:42:02;100751.00;;;9.72;63.23
11643;BME280;5877;50.930;6.918;2023-03-21T06:46:54;100835.28;;;10.35;62.77
11643;BME280;5877;50.930;6.918;2023-03-21T06:51:46;100775.97;;;10.07;62.93
11643;BME280;5877;50.930;6.918;2023-03-21T06:56:42;100982.81;;;11.48;63.56
11643;BME280;5877;50.930;6.918;2023-03-21T07:01:37;100898.31;;;10.93;63.73
11643;BME280;5877;50.930;6.918;2023-03-21T07:06:31;100997.25;;;11.83;63.64
11643;BME280;5877;50.930;6.918;2023-03-21T07:11:24;100734.19;;;10.13;64.82
11643;BME280;5877;50.930;6.918;2023-03-21T07:16:17;100795.50;;;10.38;65.62
11643;BME280;5877;50.930;6.918;2023-03-21T07:21:09;100741.31;;;9.72;67.28
11643;BME280;5877;50.930;6.918;2023-03-21T07:26:05;100890.50;;;10.73;69.65
11643;BME280;5877;50.930;6.918;2023-03-21T07:31:00;100997.84;;;11.27;70.43
11643;BME280;5877;50.930;6.918;2023-03-21T07:35:53;100551.53;;;8.50;70.55
11643;BME280;5877;50.930;6.918;2023-03-21T07:40:47;101004.59;;;11.68;70.70
11643;BME280;5877;50.930;6.918;2023-03-21T07:45:39;100739.25;;;10.21;70.51
11643;BME280;5877;50.930;6.918;2023-03-21T07:50:33;100798.84;;;10.65;70.25
11643;BME280;5877;50.930;6.918;2023-03-21T07:55:25;100956.63;;;11.21;71.27
11643;BME280;5877;50.930;6.918;2023-03-21T08:00:18;100877.75;;;10.83;73.34
11643;BME280;5877;50.930;6.918;2023-03-21T08:05:13;100907.03;;;10.87;73.64
11643;BME280;5877;50.930;6.918;2023-03-21T08:10:06;100913.91;;;10.74;74.71
11643;BME280;5877;50.930;6.918;2023-03-21T08:14:58;100528.28;;;8.07;75.04
11643;BME280;5877;50.930;6.918;2023-03-21T08:19:51;100894.38;;;10.44;75.64
11643;BME280;5877;50.930;6.918;2023-03-21T08:24:43;101013.41;;;11.22;75.56
11643;BME280;5877;50.930;6.918;2023-03-21T08:29:35;100915.16;;;10.59;76.52
11643;BME280;5877;50.930;6.918;2023-03-21T08:34:31;100902.44;;;10.43;76.74
11643;BME280;5877;50.930;6.918;2023-03-21T08:39:23;100917.16;;;10.77;75.31
11643;BME280;5877;50.930;6.918;2023-03-21T08:44:15;100913.31;;;10.72;75.01
11643;BME280;5877;50.930;6.918;2023-03-21T08:49:07;100731.44;;;9.68;74.72
11643;BME280;5877;50.930;6.918;2023-03-21T08:53:59;100761.06;;;9.82;75.17
11643;BME280;5877;50.930;6.918;2023-03-21T08:58:50;100794.94;;;10.23;75.51
11643;BME280;5877;50.930;6.918;2023-03-21T09:03:42;100919.56;;;10.85;75.90
11643;BME280;5877;50.930;6.918;2023-03-21T09:08:34;100928.59;;;11.02;76.33
11643;BME280;5877;50.930;6.918;2023-03-21T09:13:25;101001.00;;;11.49;76.19
11643;BME280;5877;50.930;6.918;2023-03-21T09:18:17;100889.09;;;10.70;77.81
11643;BME280;5877;50.930;6.918;2023-03-21T09:23:13;100988.53;;;11.31;76.15
11643;BME280;5877;50.930;6.918;2023-03-21T09:28:05;100928.75;;;11.20;76.04
11643;BME280;5877;50.930;6.918;2023-03-21T09:33:04;100695.25;;;10.29;73.54
11643;BME280;5877;50.930;6.918;2023-03-21T09:37:59;100995.13;;;12.05;72.88
11643;BME280;5877;50.930;6.918;2023-03-21T09:47:48;100763.34;;;10.49;73.08
11643;BME280;5877;50.930;6.918;2023-03-21T09:57:43;100831.03;;;10.98;71.45
11643;BME280;5877;50.930;6.918;2023-03-21T10:03:03;100868.00;;;11.42;71.31
11643;BME280;5877;50.930;6.918;2023-03-21T10:12:51;100784.56;;;10.41;73.78
11643;BME280;5877;50.930;6.918;2023-03-21T10:17:49;100979.41;;;11.41;74.82
11643;BME280;5877;50.930;6.918;2023-03-21T10:22:44;100718.09;;;9.89;73.96
11643;BME280;5877;50.930;6.918;2023-03-21T10:27:37;100861.22;;;10.69;74.08
11643;BME280;5877;50.930;6.918;2023-03-21T10:32:29;100768.53;;;10.69;71.67
11643;BME280;5877;50.930;6.918;2023-03-21T10:37:21;100780.47;;;11.10;69.74
11643;BME280;5877;50.930;6.918;2023-03-21T10:42:24;100949.03;;;11.96;69.05
11643;BME280;5877;50.930;6.918;2023-03-21T10:47:29;100735.00;;;10.71;69.42
11643;BME280;5877;50.930;6.918;2023-03-21T10:52:26;100628.00;;;10.66;69.11
11643;BME280;5877;50.930;6.918;2023-03-21T10:57:21;100851.97;;;12.13;69.43
11643;BME280;5877;50.930;6.918;2023-03-21T11:02:20;100799.44;;;12.24;68.64
11643;BME280;5877;50.930;6.918;2023-03-21T11:07:15;100894.44;;;12.16;69.08
11643;BME280;5877;50.930;6.918;2023-03-21T11:12:12;100872.06;;;12.07;70.12
11643;BME280;5877;50.930;6.918;2023-03-21T11:22:11;100601.94;;;10.40;70.33
11643;BME280;5877;50.930;6.918;2023-03-21T11:27:07;100880.22;;;11.99;70.74
11643;BME280;5877;50.930;6.918;2023-03-21T11:32:21;100842.69;;;11.85;70.51
11643;BME280;5877;50.930;6.918;2023-03-21T11:37:30;100752.13;;;11.18;71.18
11643;BME280;5877;50.930;6.918;2023-03-21T11:42:31;100819.47;;;11.44;71.92
11643;BME280;5877;50.930;6.918;2023-03-21T11:47:30;100872.00;;;11.51;72.62
11643;BME280;5877;50.930;6.918;2023-03-21T11:52:37;100693.72;;;10.47;72.90
11643;BME280;5877;50.930;6.918;2023-03-21T12:08:04;100856.13;;;11.32;77.15
11643;BME280;5877;50.930;6.918;2023-03-21T12:23:47;100654.34;;;10.02;77.97
11643;BME280;5877;50.930;6.918;2023-03-21T12:29:01;100834.59;;;11.49;75.54
11643;BME280;5877;50.930;6.918;2023-03-21T12:44:16;100748.47;;;11.19;74.84
11643;BME280;5877;50.930;6.918;2023-03-21T12:49:22;100430.13;;;9.55;71.53
11643;BME280;5877;50.930;6.918;2023-03-21T13:04:43;100811.38;;;12.82;68.61
11643;BME280;5877;50.930;6.918;2023-03-21T13:09:39;100770.09;;;12.76;68.71
11643;BME280;5877;50.930;6.918;2023-03-21T13:14:37;100533.22;;;11.43;68.34
11643;BME280;5877;50.930;6.918;2023-03-21T13:19:46;100686.19;;;11.94;67.83
11643;BME280;5877;50.930;6.918;2023-03-21T13:24:48;100507.13;;;11.04;68.26
11643;BME280;5877;50.930;6.918;2023-03-21T13:29:46;100738.47;;;12.46;67.30
11643;BME280;5877;50.930;6.918;2023-03-21T13:34:40;100412.66;;;10.80;66.55
11643;BME280;5877;50.930;6.918;2023-03-21T13:39:32;100414.47;;;10.97;66.54
11643;BME280;5877;50.930;6.918;2023-03-21T13:44:31;100752.66;;;13.05;66.88
11643;BME280;5877;50.930;6.918;2023-03-21T13:49:27;100746.31;;;12.82;67.77
11643;BME280;5877;50.930;6.918;2023-03-21T13:54:26;100744.25;;;12.84;67.31
11643;BME280;5877;50.930;6.918;2023-03-21T13:59:41;100481.38;;;11.50;65.89
11643;BME280;5877;50.930;6.918;2023-03-21T14:04:33;100734.16;;;12.81;66.83
11643;BME280;5877;50.930;6.918;2023-03-21T14:09:48;100591.50;;;11.94;66.95
11643;BME280;5877;50.930;6.918;2023-03-21T14:14:59;100708.81;;;13.10;66.00
11643;BME280;5877;50.930;6.918;2023-03-21T14:20:36;100714.66;;;13.12;66.31
11643;BME280;5877;50.930;6.918;2023-03-21T14:25:35;100658.91;;;12.74;66.22
11643;BME280;5877;50.930;6.918;2023-03-21T14:30:39;100704.13;;;12.71;67.86
11643;BME280;5877;50.930;6.918;2023-03-21T14:35:32;100597.81;;;12.23;67.25
11643;BME280;5877;50.930;6.918;2023-03-21T14:40:26;100381.66;;;10.88;66.62
11643;BME280;5877;50.930;6.918;2023-03-21T14:45:22;100556.34;;;12.07;66.89
11643;BME280;5877;50.930;6.918;2023-03-21T14:50:14;100531.91;;;12.18;66.81
11643;BME280;5877;50.930;6.918;2023-03-21T14:55:13;100632.38;;;13.10;65.93
11643;BME280;5877;50.930;6.918;2023-03-21T15:00:07;100677.25;;;13.57;65.31
11643;BME280;5877;50.930;6.918;2023-03-21T15:05:25;100686.78;;;13.81;65.52
11643;BME280;5877;50.930;6.918;2023-03-21T15:10:19;100674.28;;;13.65;64.86
11643;BME280;5877;50.930;6.918;2023-03-21T15:15:13;100620.75;;;13.53;64.73
11643;BME280;5877;50.930;6.918;2023-03-21T15:20:06;100458.97;;;12.37;64.96
11643;BME280;5877;50.930;6.918;2023-03-21T15:25:03;100414.78;;;12.51;64.06
11643;BME280;5877;50.930;6.918;2023-03-21T15:29:57;100509.34;;;13.22;64.09
11643;BME280;5877;50.930;6.918;2023-03-21T15:34:50;100562.63;;;13.48;64.28
11643;BME280;5877;50.930;6.918;2023-03-21T15:39:44;100546.22;;;13.11;64.90
11643;BME280;5877;50.930;6.918;2023-03-21T15:44:36;100391.31;;;12.49;64.19
11643;BME280;5877;50.930;6.918;2023-03-21T15:49:32;100598.56;;;14.17;62.98
11643;BME280;5877;50.930;6.918;2023-03-21T15:59:18;100306.88;;;13.19;59.21
11643;BME280;5877;50.930;6.918;2023-03-21T16:04:10;100625.81;;;15.08;59.21
11643;BME280;5877;50.930;6.918;2023-03-21T16:09:17;100230.88;;;12.43;58.70
11643;BME280;5877;50.930;6.918;2023-03-21T16:14:16;100578.16;;;14.41;58.80
11643;BME280;5877;50.930;6.918;2023-03-21T16:19:09;100588.34;;;14.21;58.30
11643;BME280;5877;50.930;6.918;2023-03-21T16:24:00;100361.34;;;13.02;58.10
11643;BME280;5877;50.930;6.918;2023-03-21T16:28:53;100611.47;;;14.42;57.27
11643;BME280;5877;50.930;6.918;2023-03-21T16:33:45;100507.84;;;14.07;56.88
11643;BME280;5877;50.930;6.918;2023-03-21T16:38:37;100600.16;;;14.58;56.84
11643;BME280;5877;50.930;6.918;2023-03-21T16:43:29;100347.47;;;13.07;56.51
11643;BME280;5877;50.930;6.918;2023-03-21T16:48:21;100550.25;;;14.17;57.44
11643;BME280;5877;50.930;6.918;2023-03-21T16:53:13;100612.22;;;14.54;57.34
11643;BME280;5877;50.930;6.918;2023-03-21T16:58:05;100493.44;;;13.69;57.82
11643;BME280;5877;50.930;6.918;2023-03-21T17:03:01;100602.59;;;14.48;57.80
11643;BME280;5877;50.930;6.918;2023-03-21T17:07:56;100508.78;;;13.72;57.77
11643;BME280;5877;50.930;6.918;2023-03-21T17:12:53;100561.50;;;13.84;58.36
11643;BME280;5877;50.930;6.918;2023-03-21T17:17:45;100213.53;;;11.60;58.19
11643;BME280;5877;50.930;6.918;2023-03-21T17:22:39;100392.69;;;12.75;57.89
11643;BME280;5877;50.930;6.918;2023-03-21T17:27:30;100645.75;;;14.14;56.69
11643;BME280;5877;50.930;6.918;2023-03-21T17:32:22;100648.16;;;14.15;55.95
11643;BME280;5877;50.930;6.918;2023-03-21T17:37:14;100396.03;;;12.59;55.20
11643;BME280;5877;50.930;6.918;2023-03-21T17:42:12;100607.25;;;13.89;55.02
11643;BME280;5877;50.930;6.918;2023-03-21T17:47:06;100253.66;;;11.67;54.95
11643;BME280;5877;50.930;6.918;2023-03-21T17:51:58;100524.13;;;13.35;54.58
11643;BME280;5877;50.930;6.918;2023-03-21T17:56:49;100570.97;;;13.56;54.72
11643;BME280;5877;50.930;6.918;2023-03-21T18:01:42;100660.50;;;13.86;55.21
11643;BME280;5877;50.930;6.918;2023-03-21T18:06:34;100414.88;;;12.09;55.31
11643;BME280;5877;50.930;6.918;2023-03-21T18:11:27;100420.69;;;12.11;55.18
11643;BME280;5877;50.930;6.918;2023-03-21T18:16:21;100559.88;;;12.96;55.46
11643;BME280;5877;50.930;6.918;2023-03-21T18:21:14;100547.50;;;12.85;55.49
11643;BME280;5877;50.930;6.918;2023-03-21T18:26:13;100657.53;;;13.48;54.91
11643;BME280;5877;50.930;6.918;2023-03-21T18:31:07;100398.09;;;11.80;54.63
11643;BME280;5877;50.930;6.918;2023-03-21T18:36:10;100600.22;;;13.20;54.59
11643;BME280;5877;50.930;6.918;2023-03-21T18:41:05;100659.03;;;13.55;54.71
11643;BME280;5877;50.930;6.918;2023-03-21T18:45:58;100445.28;;;12.05;54.37
11643;BME280;5877;50.930;6.918;2023-03-21T18:50:50;100615.81;;;13.21;54.40
11643;BME280;5877;50.930;6.918;2023-03-21T18:55:41;100340.84;;;11.52;55.69
11643;BME280;5877;50.930;6.918;2023-03-21T19:00:38;100260.13;;;10.99;54.54
11643;BME280;5877;50.930;6.918;2023-03-21T19:05:31;100458.69;;;12.15;54.85
11643;BME280;5877;50.930;6.918;2023-03-21T19:10:23;100531.63;;;12.38;54.98
11643;BME280;5877;50.930;6.918;2023-03-21T19:15:16;100619.44;;;13.09;54.69
11643;BME280;5877;50.930;6.918;2023-03-21T19:20:10;100680.00;;;13.39;54.45
11643;BME280;5877;50.930;6.918;2023-03-21T19:25:04;100665.09;;;13.32;54.87
11643;BME280;5877;50.930;6.918;2023-03-21T19:29:57;100393.19;;;11.54;55.22
11643;BME280;5877;50.930;6.918;2023-03-21T19:35:04;100635.94;;;13.04;55.42
11643;BME280;5877;50.930;6.918;2023-03-21T19:39:57;100657.25;;;13.14;55.83
11643;BME280;5877;50.930;6.918;2023-03-21T19:44:49;100276.13;;;10.80;56.19
11643;BME280;5877;50.930;6.918;2023-03-21T19:49:41;100331.38;;;11.03;56.40
11643;BME280;5877;50.930;6.918;2023-03-21T19:54:53;100573.22;;;12.59;56.59
11643;BME280;5877;50.930;6.918;2023-03-21T19:59:46;100411.88;;;11.46;56.44
11643;BME280;5877;50.930;6.918;2023-03-21T20:04:38;100655.97;;;13.05;56.93
11643;BME280;5877;50.930;6.918;2023-03-21T20:09:30;100198.47;;;10.05;56.47
11643;BME280;5877;50.930;6.918;2023-03-21T20:14:42;100330.81;;;11.01;56.85
11643;BME280;5877;50.930;6.918;2023-03-21T20:19:38;100653.00;;;12.90;57.67
11643;BME280;5877;50.930;6.918;2023-03-21T20:24:29;100659.75;;;12.86;57.62
11643;BME280;5877;50.930;6.918;2023-03-21T20:29:21;100566.78;;;12.14;57.81
11643;BME280;5877;50.930;6.918;2023-03-21T20:34:34;100450.09;;;11.30;58.34
11643;BME280;5877;50.930;6.918;2023-03-21T20:39:27;100365.38;;;10.61;59.29
11643;BME280;5877;50.930;6.918;2023-03-21T20:44:20;100284.25;;;9.98;59.95
11643;BME280;5877;50.930;6.918;2023-03-21T20:49:32;100474.22;;;11.02;60.63
11643;BME280;5877;50.930;6.918;2023-03-21T20:54:24;100523.72;;;11.42;60.38
11643;BME280;5877;50.930;6.918;2023-03-21T20:59:15;100582.75;;;11.82;60.60
11643;BME280;5877;50.930;6.918;2023-03-21T21:04:17;100642.34;;;12.25;60.32
11643;BME280;5877;50.930;6.918;2023-03-21T21:09:11;100512.03;;;11.56;60.36
11643;BME280;5877;50.930;6.918;2023-03-21T21:14:03;100662.78;;;12.41;60.10
11643;BME280;5877;50.930;6.918;2023-03-21T21:18:55;100117.97;;;9.08;59.94
11643;BME280;5877;50.930;6.918;2023-03-21T21:23:47;100353.03;;;10.44;60.58
11643;BME280;5877;50.930;6.918;2023-03-21T21:28:39;100638.84;;;11.94;61.83
11643;BME280;5877;50.930;6.918;2023-03-21T21:33:34;100395.66;;;10.14;62.33
11643;BME280;5877;50.930;6.918;2023-03-21T21:38:26;100466.75;;;10.37;63.43
11643;BME280;5877;50.930;6.918;2023-03-21T21:43:19;100382.34;;;9.59;64.26
11643;BME280;5877;50.930;6.918;2023-03-21T21:48:12;100609.06;;;10.89;64.98
11643;BME280;5877;50.930;6.918;2023-03-21T21:53:04;100352.88;;;9.26;64.89
11643;BME280;5877;50.930;6.918;2023-03-21T21:57:56;100643.41;;;11.19;64.84
11643;BME280;5877;50.930;6.918;2023-03-21T22:02:51;100386.56;;;9.60;64.50
11643;BME280;5877;50.930;6.918;2023-03-21T22:07:52;100001.72;;;7.07;64.84
11643;BME280;5877;50.930;6.918;2023-03-21T22:12:44;100186.06;;;8.05;65.74
11643;BME280;5877;50.930;6.918;2023-03-21T22:17:37;100431.69;;;9.62;65.74
11643;BME280;5877;50.930;6.918;2023-03-21T22:22:29;100624.03;;;10.89;66.04
11643;BME280;5877;50.930;6.918;2023-03-21T22:27:21;100309.94;;;8.95;65.24
11643;BME280;5877;50.930;6.918;2023-03-21T22:32:13;100525.56;;;10.48;64.88
11643;BME280;5877;50.930;6.918;2023-03-21T22:37:04;100342.75;;;9.36;64.98
11643;BME280;5877;50.930;6.918;2023-03-21T22:41:56;100616.47;;;10.99;65.29
11643;BME280;5877;50.930;6.918;2023-03-21T22:46:51;100301.09;;;8.90;65.54
11643;BME280;5877;50.930;6.918;2023-03-21T22:51:43;100419.56;;;9.68;65.78
11643;BME280;5877;50.930;6.918;2023-03-21T22:56:34;100095.97;;;7.70;65.78
11643;BME280;5877;50.930;6.918;2023-03-21T23:01:26;100093.53;;;7.75;65.07
11643;BME280;5877;50.930;6.918;2023-03-21T23:06:18;100536.13;;;10.66;65.24
11643;BME280;5877;50.930;6.918;2023-03-21T23:11:10;100595.50;;;11.17;64.84
11643;BME280;5877;50.930;6.918;2023-03-21T23:16:04;100611.75;;;11.32;64.81
11643;BME280;5877;50.930;6.918;2023-03-21T23:20:57;100544.75;;;10.98;64.92
11643;BME280;5877;50.930;6.918;2023-03-21T23:25:49;100330.25;;;9.69;64.90
11643;BME280;5877;50.930;6.918;2023-03-21T23:30:41;100535.50;;;10.96;65.65
11643;BME280;5877;50.930;6.918;2023-03-21T23:35:34;100371.91;;;9.84;65.96
11643;BME280;5877;50.930;6.918;2023-03-21T23:40:29;100609.84;;;11.21;66.46
11643;BME280;5877;50.930;6.918;2023-03-21T23:45:21;100335.56;;;9.63;66.80
11643;BME280;5877;50.930;6.918;2023-03-21T23:50:13;100508.81;;;10.74;66.47
11643;BME280;5877;50.930;6.918;2023-03-21T23:55:05;100414.72;;;10.03;66.74
11643;BME280;5877;50.930;6.918;2023-03-21T23:59:57;100318.81;;;9.64;66.74
